Estación de Talagante

Ultimos registro cada 15 minutos 24
Estación Fecha / Hora Temperatura Humedad Lluvia Velocidad Dirección Radiación Presion
24 Talagante 08-05-2026 05:45 5,5 94 0 0 131 0 1021
23 Talagante 08-05-2026 05:30 5,4 92 0 0 52 0 1020,9
22 Talagante 08-05-2026 05:15 5,2 93 0 0 48 0 1020,9
21 Talagante 08-05-2026 05:00 5,1 91 0 0 55 0 1021
20 Talagante 08-05-2026 04:45 5,2 92 0 0 65 0 1020,6
19 Talagante 08-05-2026 04:30 5,7 91 0 0,4 58 0 1020,3
18 Talagante 08-05-2026 04:15 5,8 91 0 0,9 57 0 1020,2
17 Talagante 08-05-2026 04:00 5,9 91 0 0,4 59 0 1020,5
16 Talagante 08-05-2026 03:45 6,3 90 0 0 112 0 1020,9
15 Talagante 08-05-2026 03:30 6,7 89 0 0 175 0 1021,1
14 Talagante 08-05-2026 03:15 6,9 91 0 0,9 175 0 1021,3
13 Talagante 08-05-2026 03:00 6,4 88 0 0,4 120 0 1021,3
12 Talagante 08-05-2026 02:45 6,9 88 0 0 145 0 1021,3
11 Talagante 08-05-2026 02:30 7,4 85 0 0 145 0 1021,3
10 Talagante 08-05-2026 02:15 8,3 85 0 0 144 0 1021,2
9 Talagante 08-05-2026 02:00 8,8 85 0 0 143 0 1021,6
8 Talagante 08-05-2026 01:45 9,1 84 0 0 144 0 1021,7
7 Talagante 08-05-2026 01:30 9,3 84 0 0 144 0 1021,9
6 Talagante 08-05-2026 01:15 9,7 82 0 0 144 0 1021,8
5 Talagante 08-05-2026 01:00 10,3 80 0 0 144 0 1021,9
4 Talagante 08-05-2026 00:45 10,7 79 0 0 175 0 1022,1
3 Talagante 08-05-2026 00:30 11 78 0 0 139 0 1022,2
2 Talagante 08-05-2026 00:15 11,3 78 0 0 139 0 1022,1
1 Talagante 08-05-2026 00:00 11,6 77 0 0 139 0 1022,4